Parks, NE (69041)

6:59 AM MDT on August 27, 2014 (GMT -0600)
MesoWest JOHNSON FARM NE US SCAN | Change Station
CLOSE
Current Station
Personal Weather Station
Location: Champion, NE
Elevation: 3340 ft
Nearby Weather Stations

Elev 3340 ft 40.37 °N, 101.72 °W | Updated 59 minutes ago

Partly Cloudy
Partly Cloudy
61 °F
Feels Like 61 °F
N
3
Wind Variable Wind from SE
Gusts 0.0 mph

Today
High -- | Low -- °F
--% Chance of Precip.
Yesterday
High -- | Low -- °F
Precip. -- in
6:09 AM 7:26 PM
Waxing Crescent, 3% visible
Pressure 30.06 in
Visibility 10.0 miles
Clouds Clear
Dew Point 61 °F
Humidity 100%
Rainfall -999.00 in
Snow Depth Not available.
UV 0 out of 12
Pollen 8.00 out of 12
Air Quality Not available.
Flu Activity Not available.
METAR KIML 271253Z AUTO 15007KT 10SM CLR 17/16 A3012 RMK AO2 SLP177 T01720161

More Conditions Fewer Conditions

Pressure 30.06 in
Visibility 10.0 miles
Clouds Clear
Dew Point 61 °F
Humidity 100%
Rainfall -999.00 in
Snow Depth Not available.
UV 0 out of 12
Pollen 8.00 out of 12
Air Quality Not available.
Flu Activity Not available.
METAR KIML 271253Z AUTO 15007KT 10SM CLR 17/16 A3012 RMK AO2 SLP177 T01720161

More Conditions Fewer Conditions

10-Day Weather Forecast

Almanac

Astronomy

Aug. 27, 2014 Rise Set
Actual Time 6:09 AM MDT 7:26 PM MDT
Civil Twilight 5:41 AM MDT 7:54 PM MDT
Nautical Twilight 5:07 AM MDT 8:28 PM MDT
Astronomical Twilight 4:32 AM MDT 9:03 PM MDT
Moon 8:08 AM MDT 8:19 PM MDT
Length of Visible Light 14h 12m
Length of Day
13h 16m
Tomorrow will be 2m 30s shorter.
Waxing Crescent, 3% of the Moon is Illuminated
Today
Waxing Crescent
Sep 2
First Quarter
Sep 8
Full
Sep 15
Last Quarter
Sep 24
New

Today's Extremes

State Highs State Lows

Community

WunderPhotos

Upload Photos

1,747,676 photos uploaded!

Nearby

Snow Depth

Station Depth Elevation
No new snow has been reported.

Earthquake Activity

City Distance Mag. Time & Date
No recent earthquake activity has been reported nearby.
Minimum magnitude displayed is 2.5.

Coastal Water Temperatures

Place Temperature
No Stations Reporting

Nearby Weather Stations